createdAt,value
2022-12-27T00:01:23.091Z,0.93
2022-12-27T00:03:52.887Z,0.90
2022-12-27T00:06:24.561Z,1.02
2022-12-27T00:08:56.214Z,1.00
2022-12-27T00:11:30.142Z,0.90
2022-12-27T00:14:04.319Z,0.90
2022-12-27T00:16:36.080Z,0.80
2022-12-27T00:19:08.188Z,1.20
2022-12-27T00:21:38.098Z,0.95
2022-12-27T00:24:10.726Z,1.45
2022-12-27T00:26:41.727Z,0.90
2022-12-27T00:29:11.893Z,1.13
2022-12-27T00:31:44.025Z,1.00
2022-12-27T00:34:15.364Z,1.00
2022-12-27T00:36:45.148Z,1.00
2022-12-27T00:39:18.137Z,1.08
2022-12-27T00:41:51.188Z,0.93
2022-12-27T00:44:22.652Z,0.80
2022-12-27T00:46:52.432Z,1.00
2022-12-27T00:49:22.269Z,1.10
2022-12-27T00:51:53.829Z,0.90
2022-12-27T00:54:25.038Z,1.20
2022-12-27T00:56:54.887Z,0.90
2022-12-27T00:59:27.617Z,1.70
2022-12-27T01:46:37.464Z,1.05
2022-12-27T01:49:09.673Z,1.27
2022-12-27T01:51:41.394Z,0.90
2022-12-27T01:54:13.289Z,0.85
2022-12-27T01:56:44.928Z,1.10
2022-12-27T01:59:17.875Z,0.90
2022-12-27T02:45:48.438Z,1.10
2022-12-27T02:48:42.764Z,1.10
2022-12-27T02:51:46.409Z,0.82
2022-12-27T02:54:35.245Z,1.38
2022-12-27T02:57:16.472Z,0.95
2022-12-27T03:46:34.751Z,0.85
2022-12-27T03:49:19.049Z,0.80
2022-12-27T03:51:58.430Z,1.58
2022-12-27T03:54:35.602Z,0.90
2022-12-27T03:57:12.703Z,0.95
2022-12-27T03:59:44.752Z,0.80
2022-12-27T04:46:47.567Z,1.20
2022-12-27T04:49:48.611Z,1.63
2022-12-27T04:52:47.797Z,0.98
2022-12-27T04:55:35.520Z,0.93
2022-12-27T04:58:28.862Z,0.80
2022-12-27T05:30:55.416Z,1.13
2022-12-27T05:33:24.410Z,0.70
2022-12-27T05:35:53.278Z,1.27
2022-12-27T05:38:22.006Z,0.85
2022-12-27T05:40:50.796Z,0.80
2022-12-27T05:43:19.753Z,0.90
2022-12-27T05:45:48.607Z,0.80
2022-12-27T05:48:19.275Z,0.85
2022-12-27T05:50:48.340Z,0.80
2022-12-27T05:53:17.440Z,0.70
2022-12-27T05:55:46.568Z,0.90
2022-12-27T05:58:15.609Z,0.90
2022-12-27T06:00:44.712Z,1.13
2022-12-27T06:03:13.856Z,0.80
2022-12-27T06:05:44.527Z,0.80
2022-12-27T06:08:13.384Z,0.85
2022-12-27T06:10:42.280Z,0.90
2022-12-27T06:13:10.988Z,1.25
2022-12-27T06:15:39.818Z,0.80
2022-12-27T06:18:08.606Z,0.95
2022-12-27T06:20:37.392Z,0.80
2022-12-27T06:23:07.550Z,0.90
2022-12-27T06:25:38.479Z,0.82
2022-12-27T06:28:07.243Z,0.80
2022-12-27T06:30:36.473Z,1.35
2022-12-27T06:33:05.614Z,0.73
2022-12-27T06:35:34.138Z,0.80
2022-12-27T06:38:02.981Z,0.85
2022-12-27T06:40:33.235Z,1.27
2022-12-27T06:43:02.065Z,1.00
2022-12-27T06:45:31.104Z,0.70
2022-12-27T06:47:59.753Z,0.98
2022-12-27T06:50:28.230Z,1.10
2022-12-27T06:52:57.065Z,0.80
2022-12-27T06:55:25.696Z,0.70
2022-12-27T06:57:55.557Z,0.82
2022-12-27T07:00:24.163Z,0.85
2022-12-27T07:02:52.729Z,0.88
2022-12-27T07:05:21.518Z,1.10
2022-12-27T07:07:50.062Z,1.27
2022-12-27T07:10:18.941Z,0.77
2022-12-27T07:12:47.879Z,0.95
2022-12-27T07:15:18.555Z,0.80
2022-12-27T07:17:47.072Z,0.70
2022-12-27T07:20:15.705Z,0.77
2022-12-27T07:22:44.238Z,0.73
2022-12-27T07:25:12.858Z,1.00
2022-12-27T07:27:41.432Z,0.82
2022-12-27T07:30:11.543Z,0.80
2022-12-27T07:32:41.323Z,0.80
2022-12-27T07:35:10.191Z,0.80
2022-12-27T07:37:38.849Z,0.80
2022-12-27T07:40:12.912Z,1.15
2022-12-27T07:42:41.318Z,0.75
2022-12-27T07:45:12.928Z,0.85
2022-12-27T07:47:45.590Z,0.77
2022-12-27T07:50:15.985Z,1.23
2022-12-27T07:52:47.092Z,0.80
2022-12-27T07:55:15.822Z,0.80
2022-12-27T07:57:44.467Z,0.80
2022-12-27T08:47:06.731Z,0.90
2022-12-27T08:49:35.382Z,0.77
2022-12-27T08:52:03.786Z,0.70
2022-12-27T08:54:32.333Z,0.70
2022-12-27T08:57:00.667Z,0.70
2022-12-27T08:59:29.067Z,0.80
2022-12-27T09:45:57.524Z,1.00
2022-12-27T09:48:33.587Z,0.80
2022-12-27T09:51:07.292Z,1.15
2022-12-27T09:53:45.427Z,2.00
2022-12-27T09:56:19.541Z,1.00
2022-12-27T09:58:52.288Z,1.00
2022-12-27T10:45:42.647Z,1.02
2022-12-27T10:48:23.613Z,1.00
2022-12-27T10:50:56.935Z,0.80
2022-12-27T10:53:36.072Z,1.15
2022-12-27T10:56:20.156Z,1.10
2022-12-27T10:58:58.172Z,0.93
2022-12-27T11:01:30.462Z,1.00
2022-12-27T11:04:19.729Z,1.13
2022-12-27T11:06:51.806Z,0.90
2022-12-27T11:09:28.862Z,0.90
2022-12-27T11:12:23.763Z,1.00
2022-12-27T11:14:59.256Z,2.47
2022-12-27T11:17:37.725Z,1.52
2022-12-27T11:20:22.040Z,1.13
2022-12-27T11:22:56.291Z,1.15
2022-12-27T11:25:26.761Z,1.10
2022-12-27T11:27:59.491Z,0.98
2022-12-27T11:30:32.710Z,1.27
2022-12-27T11:33:07.080Z,1.70
2022-12-27T11:35:47.638Z,1.10
2022-12-27T11:38:25.990Z,1.00
2022-12-27T11:41:03.788Z,1.20
2022-12-27T11:43:39.685Z,1.38
2022-12-27T11:46:23.944Z,1.10
2022-12-27T11:48:57.155Z,1.20
2022-12-27T11:51:45.870Z,1.10
2022-12-27T11:54:37.617Z,1.20
2022-12-27T11:57:20.346Z,1.15
2022-12-27T12:00:01.080Z,1.52
2022-12-27T12:02:48.954Z,1.20
2022-12-27T12:06:00.273Z,1.10
2022-12-27T12:09:11.548Z,0.90
2022-12-27T12:11:59.058Z,1.00
2022-12-27T12:15:07.640Z,1.27
2022-12-27T12:18:04.189Z,0.90
2022-12-27T12:21:02.860Z,1.00
2022-12-27T12:23:54.636Z,1.35
2022-12-27T12:26:24.927Z,1.38
2022-12-27T12:29:35.761Z,1.15
2022-12-27T12:32:34.372Z,1.15
2022-12-27T12:35:33.244Z,0.85
2022-12-27T12:38:19.775Z,1.00
2022-12-27T12:41:26.157Z,1.63
2022-12-27T12:44:26.606Z,0.88
2022-12-27T12:47:08.792Z,1.63
2022-12-27T12:50:13.740Z,0.90
2022-12-27T12:53:05.444Z,1.10
2022-12-27T12:56:03.676Z,1.63
2022-12-27T12:58:49.987Z,1.40
2022-12-27T13:01:37.323Z,1.10
2022-12-27T13:04:24.234Z,1.00
2022-12-27T13:07:16.404Z,1.05
2022-12-27T13:10:08.548Z,1.08
2022-12-27T13:12:48.969Z,1.02
2022-12-27T13:15:34.095Z,0.98
2022-12-27T13:18:21.786Z,1.05
2022-12-27T13:21:15.164Z,1.10
2022-12-27T13:23:57.564Z,0.95
2022-12-27T13:26:36.461Z,1.17
2022-12-27T13:29:32.507Z,1.10
2022-12-27T13:32:11.425Z,1.20
2022-12-27T13:34:55.869Z,1.02
2022-12-27T13:37:37.818Z,0.90
2022-12-27T13:40:40.611Z,1.10
2022-12-27T13:43:59.288Z,0.90
2022-12-27T13:46:48.795Z,1.15
2022-12-27T13:49:51.504Z,1.00
2022-12-27T13:52:46.228Z,0.98
2022-12-27T13:55:47.620Z,1.00
2022-12-27T13:59:03.016Z,1.00
2022-12-27T14:02:08.086Z,1.10
2022-12-27T14:05:03.012Z,1.20
2022-12-27T14:07:51.303Z,1.25
2022-12-27T14:10:33.173Z,1.00
2022-12-27T14:13:04.499Z,1.38
2022-12-27T14:16:17.473Z,1.10
2022-12-27T14:19:08.655Z,0.90
2022-12-27T14:22:02.519Z,1.17
2022-12-27T14:25:26.035Z,1.33
2022-12-27T14:28:48.610Z,1.45
2022-12-27T14:31:57.062Z,1.17
2022-12-27T14:35:21.751Z,0.95
2022-12-27T14:38:37.807Z,0.95
2022-12-27T14:41:46.628Z,1.02
2022-12-27T14:45:06.504Z,1.38
2022-12-27T14:48:15.868Z,2.25
2022-12-27T14:55:06.525Z,1.20
2022-12-27T14:57:45.808Z,1.30
2022-12-27T15:00:18.299Z,1.30
2022-12-27T15:03:15.406Z,1.40
2022-12-27T15:06:02.628Z,1.20
2022-12-27T15:08:51.781Z,1.50
2022-12-27T15:11:53.507Z,1.35
2022-12-27T15:14:48.296Z,1.40
2022-12-27T15:17:32.302Z,1.25
2022-12-27T15:20:36.484Z,1.48
2022-12-27T15:23:22.698Z,1.45
2022-12-27T15:26:07.134Z,1.58
2022-12-27T15:29:04.018Z,1.25
2022-12-27T15:31:47.600Z,1.40
2022-12-27T15:34:36.499Z,1.20
2022-12-27T15:37:05.908Z,1.50
2022-12-27T15:39:50.845Z,1.42
2022-12-27T15:42:54.167Z,1.27
2022-12-27T15:45:53.082Z,1.30
2022-12-27T15:48:59.350Z,1.45
2022-12-27T15:51:36.159Z,1.42
2022-12-27T15:54:33.970Z,1.45
2022-12-27T15:57:34.631Z,1.30
2022-12-27T16:00:18.489Z,1.30
2022-12-27T16:02:56.621Z,1.80
2022-12-27T16:05:48.374Z,1.40
2022-12-27T16:08:31.928Z,1.40
2022-12-27T16:11:02.551Z,1.42
2022-12-27T16:13:43.467Z,2.03
2022-12-27T16:16:49.190Z,1.50
2022-12-27T16:19:55.977Z,1.40
2022-12-27T16:22:36.541Z,2.08
2022-12-27T16:25:31.314Z,2.10
2022-12-27T16:28:08.050Z,2.38
2022-12-27T16:30:50.534Z,2.30
2022-12-27T16:33:40.992Z,2.92
2022-12-27T16:36:20.690Z,2.65
2022-12-27T16:39:19.905Z,2.65
2022-12-27T16:42:07.872Z,2.75
2022-12-27T16:44:54.760Z,3.20
2022-12-27T16:48:02.020Z,3.17
2022-12-27T16:51:03.444Z,2.55
2022-12-27T16:54:05.594Z,2.65
2022-12-27T16:56:36.887Z,3.22
2022-12-27T16:59:29.910Z,3.10
2022-12-27T17:02:00.054Z,2.58
2022-12-27T17:04:58.478Z,4.63
2022-12-27T17:08:27.755Z,2.95
2022-12-27T17:11:01.495Z,3.13
2022-12-27T17:13:43.826Z,2.50
2022-12-27T17:16:21.869Z,2.85
2022-12-27T17:18:59.854Z,3.47
2022-12-27T17:21:32.841Z,2.80
2022-12-27T17:24:08.377Z,3.13
2022-12-27T17:27:10.503Z,3.10
2022-12-27T17:30:08.247Z,2.70
2022-12-27T17:33:05.891Z,3.30
2022-12-27T17:35:45.221Z,3.80
2022-12-27T17:38:26.987Z,2.97
2022-12-27T17:41:11.939Z,3.45
2022-12-27T17:44:13.309Z,3.33
2022-12-27T17:46:50.289Z,2.65
2022-12-27T17:49:19.209Z,2.72
2022-12-27T17:52:02.426Z,3.33
2022-12-27T17:54:50.483Z,2.63
2022-12-27T17:57:39.193Z,3.17
2022-12-27T18:00:22.431Z,2.80
2022-12-27T18:02:53.629Z,3.22
2022-12-27T18:05:30.081Z,2.72
2022-12-27T18:08:04.496Z,3.17
2022-12-27T18:10:37.603Z,2.75
2022-12-27T18:13:08.017Z,2.88
2022-12-27T18:15:44.207Z,3.13
2022-12-27T18:18:29.152Z,2.60
2022-12-27T18:21:00.652Z,2.40
2022-12-27T18:23:29.619Z,3.15
2022-12-27T18:26:13.170Z,3.05
2022-12-27T18:28:43.998Z,2.55
2022-12-27T18:31:18.673Z,3.22
2022-12-27T18:33:51.079Z,2.47
2022-12-27T18:36:28.155Z,3.00
2022-12-27T18:39:00.690Z,2.50
2022-12-27T18:41:38.884Z,2.67
2022-12-27T18:44:21.437Z,3.08
2022-12-27T18:46:56.231Z,3.35
2022-12-27T18:49:27.712Z,2.90
2022-12-27T18:51:57.431Z,2.28
2022-12-27T18:54:36.664Z,2.45
2022-12-27T18:57:33.832Z,2.40
2022-12-27T19:00:14.068Z,3.08
2022-12-27T19:02:44.816Z,2.75
2022-12-27T19:05:31.419Z,2.33
2022-12-27T19:08:10.279Z,2.08
2022-12-27T19:10:47.374Z,2.50
2022-12-27T19:13:23.136Z,2.40
2022-12-27T19:15:53.215Z,2.90
2022-12-27T19:18:26.484Z,2.85
2022-12-27T19:20:59.404Z,3.67
2022-12-27T19:23:34.298Z,2.45
2022-12-27T19:26:08.853Z,2.25
2022-12-27T19:28:38.630Z,2.50
2022-12-27T19:31:18.191Z,3.95
2022-12-27T19:33:52.368Z,2.42
2022-12-27T19:36:27.152Z,2.30
2022-12-27T19:38:57.264Z,2.85
2022-12-27T19:41:26.730Z,2.63
2022-12-27T19:43:57.231Z,2.88
2022-12-27T19:46:30.954Z,2.65
2022-12-27T19:51:48.495Z,2.28
2022-12-27T19:54:20.283Z,2.63
2022-12-27T19:56:49.680Z,2.55
2022-12-27T19:59:23.233Z,2.63
2022-12-27T20:01:52.442Z,2.33
2022-12-27T20:04:24.528Z,2.67
2022-12-27T20:06:54.571Z,2.15
2022-12-27T20:09:23.382Z,2.40
2022-12-27T20:11:58.264Z,2.20
2022-12-27T20:14:28.345Z,2.72
2022-12-27T20:16:58.538Z,2.25
2022-12-27T20:19:27.826Z,2.55
2022-12-27T20:21:57.086Z,2.72
2022-12-27T20:24:30.150Z,2.13
2022-12-27T20:26:58.633Z,2.90
2022-12-27T20:29:30.379Z,2.42
2022-12-27T20:32:00.301Z,3.05
2022-12-27T20:34:32.052Z,2.30
2022-12-27T20:37:00.598Z,2.83
2022-12-27T20:39:29.191Z,2.45
2022-12-27T20:41:57.732Z,2.33
2022-12-27T20:44:30.546Z,2.35
2022-12-27T20:46:59.117Z,2.45
2022-12-27T20:49:29.763Z,2.55
2022-12-27T20:52:07.043Z,2.88
2022-12-27T20:54:43.960Z,2.45
2022-12-27T20:57:12.679Z,2.60
2022-12-27T20:59:49.041Z,2.30
2022-12-27T21:02:17.670Z,2.47
2022-12-27T21:04:49.861Z,2.60
2022-12-27T21:07:18.750Z,3.42
2022-12-27T21:09:47.314Z,2.92
2022-12-27T21:12:17.524Z,2.22
2022-12-27T21:14:47.584Z,2.15
2022-12-27T21:17:18.819Z,2.53
2022-12-27T21:19:52.949Z,2.58
2022-12-27T21:22:21.413Z,2.45
2022-12-27T21:24:52.966Z,2.22
2022-12-27T21:27:24.379Z,2.42
2022-12-27T21:29:56.030Z,2.38
2022-12-27T21:32:24.601Z,3.10
2022-12-27T21:34:53.239Z,2.85
2022-12-27T21:37:22.801Z,2.80
2022-12-27T21:39:56.217Z,2.35
2022-12-27T21:42:24.948Z,2.50
2022-12-27T21:44:57.116Z,2.20
2022-12-27T21:47:26.141Z,2.40
2022-12-27T21:49:54.763Z,2.50
2022-12-27T21:52:23.355Z,2.25
2022-12-27T21:54:52.112Z,2.40
2022-12-27T21:57:20.733Z,2.63
2022-12-27T21:59:49.373Z,2.15
2022-12-27T22:02:19.319Z,2.05
2022-12-27T22:04:48.151Z,2.45
2022-12-27T22:07:16.765Z,2.20
2022-12-27T22:09:45.630Z,2.55
2022-12-27T22:12:14.386Z,2.20
2022-12-27T22:14:43.004Z,2.88
2022-12-27T22:17:11.837Z,2.10
2022-12-27T22:19:41.945Z,2.20
2022-12-27T22:22:10.493Z,2.50
2022-12-27T22:24:39.237Z,2.30
2022-12-27T22:27:07.921Z,2.13
2022-12-27T22:29:36.436Z,2.35
2022-12-27T22:32:05.224Z,2.22
2022-12-27T22:34:33.762Z,3.20
2022-12-27T22:37:03.844Z,3.22
2022-12-27T22:39:32.597Z,2.25
2022-12-27T22:42:01.383Z,2.30
2022-12-27T22:44:30.367Z,2.05
2022-12-27T22:47:25.602Z,2.20
2022-12-27T22:49:48.173Z,2.47
2022-12-27T22:52:18.297Z,2.15
2022-12-27T22:55:06.036Z,2.03
2022-12-27T22:57:35.537Z,2.28
2022-12-27T23:00:06.727Z,2.17
2022-12-27T23:02:35.388Z,2.55
2022-12-27T23:05:04.529Z,1.90
2022-12-27T23:08:04.789Z,2.40
2022-12-27T23:10:25.168Z,1.83
2022-12-27T23:12:53.619Z,2.40
2022-12-27T23:15:22.083Z,2.20
2022-12-27T23:17:50.548Z,2.00
2022-12-27T23:20:19.283Z,1.98
2022-12-27T23:22:50.513Z,2.17
2022-12-27T23:25:19.082Z,2.40
2022-12-27T23:27:47.784Z,2.10
2022-12-27T23:30:17.148Z,2.22
2022-12-27T23:32:45.752Z,2.50
2022-12-27T23:35:14.422Z,2.67
2022-12-27T23:37:42.940Z,2.17
2022-12-27T23:40:13.768Z,2.00
2022-12-27T23:42:42.730Z,2.10
2022-12-27T23:45:12.605Z,2.40
2022-12-27T23:47:41.183Z,1.80
2022-12-27T23:50:13.273Z,2.83
2022-12-27T23:52:45.238Z,2.25
2022-12-27T23:55:15.368Z,2.00
2022-12-27T23:57:43.997Z,2.10
